Time;durP1;ratioP1;P1;durP2;ratioP2;P2;SDS_P1;SDS_P2;PMS_P1;PMS_P2;Temp;Humidity;BMP_temperature;BMP_pressure;BME280_temperature;BME280_humidity;BME280_pressure;Samples;Min_cycle;Max_cycle;Signal;HPM_P1;HPM_P2
2022/07/21 00:02:17;;;;;;;;;;;28.80;38.80;;;;;;8364240;28;19924;-45
2022/07/21 00:06:18;;;;;;;;;;;28.80;38.80;;;;;;8364419;28;19948;-45
2022/07/21 00:10:19;;;;;;;;;;;28.80;38.90;;;;;;8364126;28;19935;-46
2022/07/21 00:14:19;;;;;;;;;;;28.70;38.90;;;;;;8363458;28;19925;-45
2022/07/21 00:18:20;;;;;;;;;;;28.80;38.90;;;;;;8363173;28;19920;-45
2022/07/21 00:22:20;;;;;;;;;;;28.80;38.90;;;;;;8364239;28;20332;-45
2022/07/21 00:26:21;;;;;;;;;;;28.80;38.90;;;;;;8363270;28;19917;-46
2022/07/21 00:30:22;;;;;;;;;;;28.80;39.00;;;;;;8363628;28;19917;-45
2022/07/21 00:34:22;;;;;;;;;;;28.80;39.00;;;;;;8363660;28;19920;-45
2022/07/21 00:38:22;;;;;;;;;;;28.70;39.40;;;;;;8363143;28;20306;-45
2022/07/21 00:42:24;;;;;;;;;;;28.70;38.90;;;;;;8363626;28;19917;-46
2022/07/21 00:46:25;;;;;;;;;;;28.70;38.90;;;;;;8363505;28;20277;-45
2022/07/21 00:50:25;;;;;;;;;;;28.70;39.00;;;;;;8362691;28;19995;-45
2022/07/21 00:54:26;;;;;;;;;;;28.70;39.00;;;;;;8363142;28;19928;-45
2022/07/21 00:58:26;;;;;;;;;;;28.70;39.00;;;;;;8363435;28;19916;-45
2022/07/21 01:02:28;;;;;;;;;;;28.70;39.00;;;;;;8362602;28;19939;-46
2022/07/21 01:06:28;;;;;;;;;;;28.70;39.00;;;;;;8351572;28;20369;-45
2022/07/21 01:10:29;;;;;;;;;;;28.70;39.00;;;;;;8345674;28;19917;-46
2022/07/21 01:14:30;;;;;;;;;;;28.70;39.00;;;;;;8362764;28;19925;-45
2022/07/21 01:18:31;;;;;;;;;;;28.60;39.00;;;;;;8363228;28;20385;-45
2022/07/21 01:22:33;;;;;;;;;;;28.60;39.00;;;;;;8395075;28;19920;-45
2022/07/21 01:26:44;;;;;;;;;;;28.60;39.10;;;;;;8395414;28;20293;-45
2022/07/21 01:30:44;;;;;;;;;;;28.60;39.10;;;;;;8398912;28;19920;-45
2022/07/21 01:34:44;;;;;;;;;;;28.60;39.10;;;;;;8401663;28;20062;-46
2022/07/21 01:52:20;;;;;;;;;;;28.60;39.20;;;;;;8371689;28;20336;-45
2022/07/21 01:56:21;;;;;;;;;;;28.60;39.20;;;;;;8367781;28;19960;-44
2022/07/21 02:00:22;;;;;;;;;;;28.60;39.20;;;;;;8368531;28;20378;-44
2022/07/21 02:04:22;;;;;;;;;;;28.60;39.30;;;;;;8368406;28;19917;-44
2022/07/21 02:08:22;;;;;;;;;;;28.50;39.30;;;;;;8367888;28;19913;-44
2022/07/21 02:12:23;;;;;;;;;;;28.60;39.30;;;;;;8368148;28;19917;-44
2022/07/21 02:16:24;;;;;;;;;;;28.50;39.30;;;;;;8367548;28;20007;-45
2022/07/21 02:20:25;;;;;;;;;;;28.50;39.30;;;;;;8367325;28;19917;-45
2022/07/21 02:24:25;;;;;;;;;;;28.50;39.40;;;;;;8373177;28;19947;-45
2022/07/21 02:28:26;;;;;;;;;;;28.50;39.40;;;;;;8367653;28;20061;-44
2022/07/21 02:32:27;;;;;;;;;;;28.50;39.40;;;;;;8366908;28;19921;-44
2022/07/21 02:36:27;;;;;;;;;;;28.50;39.40;;;;;;8367154;28;19931;-45
2022/07/21 02:40:28;;;;;;;;;;;28.50;39.50;;;;;;8366642;28;19917;-44
2022/07/21 02:44:30;;;;;;;;;;;28.50;39.50;;;;;;8366261;28;20309;-45
2022/07/21 02:48:30;;;;;;;;;;;28.50;39.50;;;;;;8367267;28;19999;-44
2022/07/21 02:52:31;;;;;;;;;;;28.50;39.50;;;;;;8366865;28;20336;-45
2022/07/21 02:56:31;;;;;;;;;;;28.50;39.50;;;;;;8366126;28;19971;-44
2022/07/21 03:00:32;;;;;;;;;;;28.40;39.50;;;;;;8366510;28;19963;-45
2022/07/21 03:04:32;;;;;;;;;;;28.40;39.60;;;;;;8366451;28;19920;-45
2022/07/21 03:08:33;;;;;;;;;;;28.40;39.50;;;;;;8365932;28;19913;-45
2022/07/21 03:12:34;;;;;;;;;;;28.40;39.60;;;;;;8366005;28;19923;-44
2022/07/21 03:16:34;;;;;;;;;;;28.40;39.60;;;;;;8365265;28;19932;-42
2022/07/21 03:20:36;;;;;;;;;;;28.40;39.60;;;;;;8366025;28;19940;-45
2022/07/21 03:24:36;;;;;;;;;;;28.40;39.70;;;;;;8365714;28;20313;-45
2022/07/21 03:28:37;;;;;;;;;;;28.40;39.70;;;;;;8365216;28;19920;-45
2022/07/21 03:32:37;;;;;;;;;;;28.40;39.60;;;;;;8365243;28;20128;-45
2022/07/21 03:36:38;;;;;;;;;;;28.40;39.70;;;;;;8365370;28;20031;-45
2022/07/21 03:40:38;;;;;;;;;;;28.40;39.70;;;;;;8364705;28;19920;-46
2022/07/21 03:44:39;;;;;;;;;;;28.30;39.60;;;;;;8365458;28;19999;-47
2022/07/21 03:48:39;;;;;;;;;;;28.40;39.70;;;;;;8365409;28;20374;-45
2022/07/21 03:52:40;;;;;;;;;;;28.30;39.60;;;;;;8364275;28;20020;-44
2022/07/21 03:56:40;;;;;;;;;;;28.30;39.70;;;;;;8364532;28;19925;-46
2022/07/21 04:00:42;;;;;;;;;;;28.40;39.80;;;;;;8364510;28;20293;-44
2022/07/21 04:04:43;;;;;;;;;;;28.40;39.70;;;;;;8363569;28;19960;-45
2022/07/21 04:08:43;;;;;;;;;;;28.30;39.70;;;;;;8364367;28;19917;-46
2022/07/21 04:12:44;;;;;;;;;;;28.30;39.70;;;;;;8364143;28;19992;-45
2022/07/21 04:16:44;;;;;;;;;;;28.30;39.70;;;;;;8363483;28;20027;-44
2022/07/21 04:20:45;;;;;;;;;;;28.40;39.80;;;;;;8363983;28;19940;-45
2022/07/21 04:24:45;;;;;;;;;;;28.30;39.80;;;;;;8364143;28;19913;-45
2022/07/21 04:28:46;;;;;;;;;;;28.30;39.80;;;;;;8363410;28;19917;-45
2022/07/21 04:32:46;;;;;;;;;;;28.30;39.80;;;;;;8363951;28;19916;-45
2022/07/21 04:36:47;;;;;;;;;;;28.30;39.80;;;;;;8363609;28;20290;-45
2022/07/21 04:40:47;;;;;;;;;;;28.30;39.80;;;;;;8362992;28;19975;-46
2022/07/21 04:44:47;;;;;;;;;;;28.30;39.80;;;;;;8364144;28;20126;-46
2022/07/21 04:48:48;;;;;;;;;;;28.20;39.80;;;;;;8363401;28;19921;-45
2022/07/21 04:52:49;;;;;;;;;;;28.30;39.80;;;;;;8362777;28;20289;-44
2022/07/21 04:56:49;;;;;;;;;;;28.30;39.90;;;;;;8363001;28;19925;-46
2022/07/21 05:00:50;;;;;;;;;;;28.30;39.90;;;;;;8363086;28;19917;-45
2022/07/21 05:04:50;;;;;;;;;;;28.30;39.90;;;;;;8364830;28;19917;-45
2022/07/21 05:08:51;;;;;;;;;;;28.20;39.90;;;;;;8369900;28;19917;-44
2022/07/21 05:12:51;;;;;;;;;;;28.20;40.50;;;;;;8369809;28;19917;-45
2022/07/21 05:16:51;;;;;;;;;;;28.30;40.00;;;;;;8369190;28;19924;-44
2022/07/21 05:20:52;;;;;;;;;;;28.20;39.90;;;;;;8369908;28;19917;-44
2022/07/21 05:24:52;;;;;;;;;;;28.20;39.90;;;;;;8369739;28;19913;-45
2022/07/21 05:28:53;;;;;;;;;;;28.20;39.90;;;;;;8368832;28;20003;-44
2022/07/21 05:32:53;;;;;;;;;;;28.20;40.00;;;;;;8369329;28;19916;-44
2022/07/21 05:36:54;;;;;;;;;;;28.20;39.90;;;;;;8369186;28;19983;-44
2022/07/21 05:40:54;;;;;;;;;;;28.20;39.90;;;;;;8368522;28;19951;-45
2022/07/21 05:44:56;;;;;;;;;;;28.30;40.00;;;;;;8369232;28;20031;-45
2022/07/21 05:48:56;;;;;;;;;;;28.30;39.90;;;;;;8368888;28;20365;-44
2022/07/21 05:52:57;;;;;;;;;;;28.30;39.90;;;;;;8368209;28;19924;-44
2022/07/21 05:56:58;;;;;;;;;;;28.30;39.90;;;;;;8368279;28;19932;-44
2022/07/21 06:01:15;;;;;;;;;;;28.30;39.90;;;;;;8368529;28;19956;-44
2022/07/21 06:05:15;;;;;;;;;;;28.30;39.90;;;;;;8368143;28;19935;-44
2022/07/21 06:09:15;;;;;;;;;;;28.30;39.80;;;;;;8368163;28;19924;-45
2022/07/21 06:13:16;;;;;;;;;;;28.30;39.90;;;;;;8367873;28;19966;-45
2022/07/21 06:17:16;;;;;;;;;;;28.30;39.80;;;;;;8366018;28;19967;-45
2022/07/21 06:21:17;;;;;;;;;;;28.30;39.90;;;;;;8367836;28;19924;-45
2022/07/21 06:25:20;;;;;;;;;;;28.30;39.80;;;;;;8367964;28;19952;-45
2022/07/21 06:29:21;;;;;;;;;;;28.30;39.80;;;;;;8367116;28;19917;-45
2022/07/21 06:33:22;;;;;;;;;;;28.30;39.90;;;;;;8367319;28;20262;-46
2022/07/21 06:37:22;;;;;;;;;;;28.30;39.90;;;;;;8367382;28;20015;-46
2022/07/21 06:41:23;;;;;;;;;;;28.30;40.00;;;;;;8366735;28;19924;-45
2022/07/21 06:45:24;;;;;;;;;;;28.30;40.00;;;;;;8367185;28;19913;-45
2022/07/21 06:49:24;;;;;;;;;;;28.20;40.00;;;;;;8366881;28;19996;-45
2022/07/21 06:53:25;;;;;;;;;;;28.30;40.00;;;;;;8366897;28;19917;-45
2022/07/21 06:57:25;;;;;;;;;;;28.30;40.00;;;;;;8366491;28;19925;-45
2022/07/21 07:01:25;;;;;;;;;;;28.30;40.00;;;;;;8366406;28;19923;-45
2022/07/21 07:05:28;;;;;;;;;;;28.20;40.00;;;;;;8365240;28;19913;-45
2022/07/21 07:09:28;;;;;;;;;;;28.20;40.00;;;;;;8366227;28;20189;-45
2022/07/21 07:13:29;;;;;;;;;;;28.30;40.00;;;;;;8365813;28;19994;-45
2022/07/21 07:17:29;;;;;;;;;;;28.30;40.10;;;;;;8365408;28;19929;-45
2022/07/21 07:21:30;;;;;;;;;;;28.30;40.10;;;;;;8365943;28;19921;-44
2022/07/21 07:25:30;;;;;;;;;;;28.30;40.10;;;;;;8365706;28;20274;-46
2022/07/21 07:29:31;;;;;;;;;;;28.20;40.00;;;;;;8365230;28;19940;-45
2022/07/21 07:33:32;;;;;;;;;;;28.30;40.00;;;;;;8365792;28;20366;-44
2022/07/21 07:37:33;;;;;;;;;;;28.30;40.10;;;;;;8365244;28;19927;-44
2022/07/21 07:41:34;;;;;;;;;;;28.20;40.00;;;;;;8364624;28;19964;-45
2022/07/21 07:45:35;;;;;;;;;;;28.20;40.00;;;;;;8365240;28;19913;-46
2022/07/21 07:49:35;;;;;;;;;;;28.20;40.00;;;;;;8364532;28;20023;-43
2022/07/21 07:53:35;;;;;;;;;;;28.20;40.00;;;;;;8346901;28;19917;-45
2022/07/21 07:57:36;;;;;;;;;;;28.30;40.00;;;;;;8364547;28;20348;-46
2022/07/21 08:01:37;;;;;;;;;;;28.30;39.90;;;;;;8364147;28;20289;-46
2022/07/21 08:05:37;;;;;;;;;;;28.30;39.90;;;;;;8364753;28;19919;-45
2022/07/21 08:09:39;;;;;;;;;;;28.30;39.90;;;;;;8364621;28;19928;-46
2022/07/21 08:13:39;;;;;;;;;;;28.30;39.90;;;;;;8363591;28;19924;-45
2022/07/21 08:17:40;;;;;;;;;;;28.30;39.80;;;;;;8363526;28;20431;-45
2022/07/21 08:21:40;;;;;;;;;;;28.30;39.80;;;;;;8364131;28;19913;-44
2022/07/21 08:25:41;;;;;;;;;;;28.30;39.80;;;;;;8363680;28;19917;-43
2022/07/21 08:29:41;;;;;;;;;;;28.40;39.80;;;;;;8363800;28;19916;-44
2022/07/21 08:33:42;;;;;;;;;;;28.40;39.80;;;;;;8363627;28;19916;-44
2022/07/21 08:37:52;;;;;;;;;;;28.40;39.80;;;;;;8363053;28;19940;-44
2022/07/21 08:41:52;;;;;;;;;;;28.40;39.80;;;;;;8362851;28;19959;-45
2022/07/21 08:45:53;;;;;;;;;;;28.40;39.80;;;;;;8363894;28;19913;-44
2022/07/21 08:49:53;;;;;;;;;;;28.40;39.80;;;;;;8362843;28;19916;-44
2022/07/21 08:53:54;;;;;;;;;;;28.40;39.80;;;;;;8363159;28;19940;-44
2022/07/21 08:57:54;;;;;;;;;;;28.40;39.70;;;;;;8363143;28;20374;-44
2022/07/21 09:01:55;;;;;;;;;;;28.50;39.80;;;;;;8362715;28;20255;-44
2022/07/21 09:06:11;;;;;;;;;;;28.50;39.80;;;;;;8363461;28;19966;-45
2022/07/21 09:10:11;;;;;;;;;;;28.50;39.80;;;;;;8362880;28;20327;-44
2022/07/21 09:14:13;;;;;;;;;;;28.50;39.70;;;;;;8362105;28;19920;-44
2022/07/21 09:18:15;;;;;;;;;;;28.50;39.80;;;;;;8363071;28;19966;-44
2022/07/21 09:22:18;;;;;;;;;;;28.50;39.70;;;;;;8362580;28;19939;-44
2022/07/21 09:26:18;;;;;;;;;;;28.50;39.70;;;;;;8362495;28;19966;-45
2022/07/21 09:30:19;;;;;;;;;;;28.50;39.60;;;;;;8362921;28;19920;-44
2022/07/21 09:34:20;;;;;;;;;;;28.60;39.70;;;;;;8362693;28;19921;-44
2022/07/21 09:38:21;;;;;;;;;;;28.60;39.70;;;;;;8362193;28;19917;-45
2022/07/21 09:42:25;;;;;;;;;;;28.60;39.60;;;;;;8362529;28;19924;-44
2022/07/21 09:46:30;;;;;;;;;;;28.60;39.60;;;;;;8362439;28;19924;-45
2022/07/21 09:50:31;;;;;;;;;;;28.60;39.60;;;;;;8362894;28;20011;-45
2022/07/21 09:54:33;;;;;;;;;;;28.70;39.60;;;;;;8368480;28;19925;-45
2022/07/21 09:58:33;;;;;;;;;;;28.70;39.60;;;;;;8368199;28;19958;-45
2022/07/21 10:02:34;;;;;;;;;;;28.70;39.50;;;;;;8367708;28;20266;-44
2022/07/21 10:06:36;;;;;;;;;;;28.70;39.50;;;;;;8368275;28;19995;-44
2022/07/21 10:10:36;;;;;;;;;;;28.70;39.50;;;;;;8352155;28;19967;-43
2022/07/21 10:14:37;;;;;;;;;;;28.80;39.50;;;;;;8355208;28;19924;-46
2022/07/21 10:18:42;;;;;;;;;;;28.80;39.50;;;;;;8367865;28;19917;-44
2022/07/21 10:22:55;;;;;;;;;;;28.70;39.40;;;;;;8366985;28;19924;-44
2022/07/21 10:27:09;;;;;;;;;;;28.80;39.40;;;;;;8368072;28;19967;-45
2022/07/21 10:31:18;;;;;;;;;;;28.80;39.40;;;;;;8367255;28;19917;-44
2022/07/21 10:35:26;;;;;;;;;;;28.80;39.30;;;;;;8366565;28;20444;-44
2022/07/21 10:39:26;;;;;;;;;;;28.90;39.40;;;;;;8367319;28;20305;-44
2022/07/21 10:43:27;;;;;;;;;;;28.80;39.20;;;;;;8367030;28;20019;-45
2022/07/21 10:47:30;;;;;;;;;;;28.90;39.30;;;;;;8366461;28;19917;-44
2022/07/21 10:51:31;;;;;;;;;;;28.90;39.20;;;;;;8367235;28;19986;-44
2022/07/21 10:55:35;;;;;;;;;;;28.90;39.20;;;;;;8366411;28;19924;-45
2022/07/21 10:59:58;;;;;;;;;;;28.90;39.10;;;;;;8366237;28;20386;-45
2022/07/21 11:04:10;;;;;;;;;;;29.00;39.10;;;;;;8357285;28;19916;-45
2022/07/21 11:08:12;;;;;;;;;;;29.00;39.10;;;;;;8365805;28;19924;-44
2022/07/21 11:12:13;;;;;;;;;;;29.00;39.00;;;;;;8366314;28;19920;-45
2022/07/21 11:16:14;;;;;;;;;;;29.00;39.00;;;;;;8395938;28;20393;-44
2022/07/21 11:20:15;;;;;;;;;;;29.00;38.90;;;;;;8398545;28;19917;-45
2022/07/21 11:24:19;;;;;;;;;;;29.10;38.90;;;;;;8398848;28;19980;-44
2022/07/21 11:28:19;;;;;;;;;;;29.10;38.90;;;;;;8357754;28;19956;-44
2022/07/21 11:32:20;;;;;;;;;;;29.10;38.50;;;;;;8346349;28;19917;-45
2022/07/21 11:36:28;;;;;;;;;;;29.10;38.90;;;;;;8355439;28;19933;-44
2022/07/21 11:40:28;;;;;;;;;;;29.20;38.10;;;;;;8350811;28;19921;-42
2022/07/21 11:44:29;;;;;;;;;;;29.10;37.40;;;;;;8346482;28;19932;-43
2022/07/21 11:48:30;;;;;;;;;;;29.10;37.50;;;;;;8341025;28;20417;-43
2022/07/21 11:52:31;;;;;;;;;;;29.10;37.80;;;;;;8343514;28;20354;-44
2022/07/21 11:56:36;;;;;;;;;;;29.10;37.40;;;;;;8342478;28;19925;-45
2022/07/21 12:00:36;;;;;;;;;;;29.20;38.20;;;;;;8345381;28;19917;-44
2022/07/21 12:04:47;;;;;;;;;;;29.20;37.30;;;;;;8345802;28;20340;-42
2022/07/21 12:08:47;;;;;;;;;;;29.30;37.50;;;;;;8343816;28;20428;-44
2022/07/21 12:12:49;;;;;;;;;;;29.30;37.00;;;;;;8343689;28;20020;-44
2022/07/21 12:16:50;;;;;;;;;;;29.20;37.30;;;;;;8362010;28;19929;-44
2022/07/21 12:21:00;;;;;;;;;;;29.30;37.70;;;;;;8364078;28;19923;-44
2022/07/21 12:25:01;;;;;;;;;;;29.40;37.70;;;;;;8364159;28;20444;-44
2022/07/21 12:29:01;;;;;;;;;;;29.40;37.70;;;;;;8363427;28;19924;-44
2022/07/21 12:33:04;;;;;;;;;;;29.50;37.70;;;;;;8364250;28;20269;-44
2022/07/21 12:37:04;;;;;;;;;;;29.40;37.70;;;;;;8363502;28;19932;-44
2022/07/21 12:41:06;;;;;;;;;;;29.50;37.70;;;;;;8363118;28;20352;-44
2022/07/21 12:45:13;;;;;;;;;;;29.50;37.70;;;;;;8363601;28;19946;-44
2022/07/21 12:49:14;;;;;;;;;;;29.50;37.80;;;;;;8363367;28;19916;-44
2022/07/21 12:53:14;;;;;;;;;;;29.50;37.80;;;;;;8363002;28;19912;-44
2022/07/21 12:57:14;;;;;;;;;;;29.50;37.80;;;;;;8363094;28;19924;-46
2022/07/21 13:01:16;;;;;;;;;;;29.60;37.90;;;;;;8363165;28;19917;-45
2022/07/21 13:05:17;;;;;;;;;;;29.60;38.00;;;;;;8362778;28;20362;-47
2022/07/21 13:09:17;;;;;;;;;;;29.60;37.90;;;;;;8352334;28;19952;-44
2022/07/21 13:13:18;;;;;;;;;;;29.60;38.40;;;;;;8363424;28;20373;-44
2022/07/21 13:17:19;;;;;;;;;;;29.60;37.90;;;;;;8362615;28;20015;-45
2022/07/21 13:21:19;;;;;;;;;;;29.60;37.80;;;;;;8363003;28;19920;-44
2022/07/21 13:25:20;;;;;;;;;;;29.60;37.80;;;;;;8363874;28;19928;-44
2022/07/21 13:29:21;;;;;;;;;;;29.70;37.80;;;;;;8368832;28;19917;-44
2022/07/21 13:33:21;;;;;;;;;;;29.60;37.80;;;;;;8369310;28;19935;-44
2022/07/21 13:37:22;;;;;;;;;;;29.60;37.80;;;;;;8369137;28;19925;-46
2022/07/21 13:41:22;;;;;;;;;;;29.70;37.90;;;;;;8368547;28;20400;-45
2022/07/21 13:45:23;;;;;;;;;;;29.70;37.80;;;;;;8368952;28;19917;-45
2022/07/21 13:49:23;;;;;;;;;;;29.70;37.70;;;;;;8368948;28;19924;-44
2022/07/21 13:53:24;;;;;;;;;;;29.70;37.80;;;;;;8368345;28;19916;-46
2022/07/21 13:57:25;;;;;;;;;;;29.70;37.70;;;;;;8368501;28;19931;-44
2022/07/21 14:01:25;;;;;;;;;;;29.70;37.70;;;;;;8368365;28;19959;-44
2022/07/21 14:05:26;;;;;;;;;;;29.70;37.80;;;;;;8350169;28;19970;-44
2022/07/21 14:09:26;;;;;;;;;;;29.70;37.70;;;;;;8368449;28;19917;-44
2022/07/21 14:13:27;;;;;;;;;;;29.70;37.90;;;;;;8368303;28;19928;-44
2022/07/21 14:17:27;;;;;;;;;;;29.70;37.70;;;;;;8367311;28;19971;-44
2022/07/21 14:21:28;;;;;;;;;;;29.80;37.70;;;;;;8367801;28;19940;-44
2022/07/21 14:25:28;;;;;;;;;;;29.80;37.70;;;;;;8367690;28;20416;-45
2022/07/21 14:29:29;;;;;;;;;;;29.80;37.70;;;;;;8367199;28;19931;-45
2022/07/21 14:33:30;;;;;;;;;;;29.70;37.60;;;;;;8367784;28;19921;-45
2022/07/21 14:37:30;;;;;;;;;;;29.80;37.60;;;;;;8365930;28;19929;-44
2022/07/21 14:41:30;;;;;;;;;;;29.80;37.60;;;;;;8364683;28;19963;-42
2022/07/21 14:45:31;;;;;;;;;;;29.80;37.70;;;;;;8362941;28;19963;-46
2022/07/21 14:49:32;;;;;;;;;;;29.80;37.40;;;;;;8367100;28;19917;-45
2022/07/21 14:53:32;;;;;;;;;;;29.80;37.50;;;;;;8366578;28;19913;-44
2022/07/21 14:57:33;;;;;;;;;;;29.80;37.50;;;;;;8366775;28;20019;-44
2022/07/21 15:01:33;;;;;;;;;;;29.80;37.30;;;;;;8366689;28;19917;-46
2022/07/21 15:05:34;;;;;;;;;;;29.80;37.30;;;;;;8365758;28;19916;-44
2022/07/21 15:09:34;;;;;;;;;;;29.80;37.30;;;;;;8366462;28;20401;-45
2022/07/21 15:13:35;;;;;;;;;;;29.80;37.30;;;;;;8365753;28;19969;-43
2022/07/21 15:17:36;;;;;;;;;;;29.80;37.20;;;;;;8365626;28;19925;-45
2022/07/21 15:21:37;;;;;;;;;;;29.80;37.30;;;;;;8365943;28;20370;-45
2022/07/21 15:25:37;;;;;;;;;;;29.80;37.10;;;;;;8365253;28;19924;-45
2022/07/21 15:29:38;;;;;;;;;;;29.80;37.10;;;;;;8349636;28;20039;-46
2022/07/21 15:33:38;;;;;;;;;;;29.80;37.10;;;;;;8365734;28;19990;-45
2022/07/21 15:37:39;;;;;;;;;;;29.80;37.00;;;;;;8364719;28;19932;-45
2022/07/21 15:41:39;;;;;;;;;;;29.80;37.00;;;;;;8365171;28;19987;-45
2022/07/21 15:45:41;;;;;;;;;;;29.80;37.10;;;;;;8365205;28;20395;-45
2022/07/21 15:49:41;;;;;;;;;;;29.80;37.00;;;;;;8364104;28;19920;-45
2022/07/21 15:53:42;;;;;;;;;;;29.80;37.10;;;;;;8365092;28;19912;-44
2022/07/21 15:57:42;;;;;;;;;;;29.80;37.00;;;;;;8364854;28;19932;-45
2022/07/21 16:01:43;;;;;;;;;;;29.80;37.00;;;;;;8364272;28;19924;-45
2022/07/21 16:05:43;;;;;;;;;;;29.80;37.00;;;;;;8363410;28;20289;-45
2022/07/21 16:09:44;;;;;;;;;;;29.80;36.90;;;;;;8358261;28;19920;-45
2022/07/21 16:13:44;;;;;;;;;;;29.80;37.00;;;;;;8363866;28;19952;-45
2022/07/21 16:17:45;;;;;;;;;;;29.80;36.90;;;;;;8364339;28;19987;-47
2022/07/21 16:21:46;;;;;;;;;;;29.80;37.00;;;;;;8363426;28;20321;-45
2022/07/21 16:25:46;;;;;;;;;;;29.80;37.00;;;;;;8339714;28;19917;-45
2022/07/21 16:29:47;;;;;;;;;;;29.80;36.90;;;;;;8363885;28;19917;-45
2022/07/21 16:33:47;;;;;;;;;;;29.80;37.00;;;;;;8363932;28;19920;-45
2022/07/21 16:37:49;;;;;;;;;;;29.80;37.00;;;;;;8363013;28;19959;-46
2022/07/21 16:41:49;;;;;;;;;;;29.80;37.00;;;;;;8363443;28;20420;-44
2022/07/21 16:45:50;;;;;;;;;;;29.80;37.00;;;;;;8363430;28;19959;-45
2022/07/21 16:49:50;;;;;;;;;;;29.80;37.00;;;;;;8363150;28;20361;-45
2022/07/21 16:53:51;;;;;;;;;;;29.80;36.90;;;;;;8363873;28;20144;-47
2022/07/21 16:57:51;;;;;;;;;;;29.80;37.00;;;;;;8363162;28;19925;-44
2022/07/21 17:01:51;;;;;;;;;;;29.80;36.90;;;;;;8378143;28;19924;-45
2022/07/21 17:05:52;;;;;;;;;;;29.80;36.90;;;;;;8396202;28;20005;-45
2022/07/21 17:09:52;;;;;;;;;;;29.80;36.90;;;;;;8396574;28;19912;-45
2022/07/21 17:13:53;;;;;;;;;;;29.80;36.80;;;;;;8395558;28;19998;-45
2022/07/21 17:17:53;;;;;;;;;;;29.80;36.90;;;;;;8396268;28;19924;-48
2022/07/21 17:21:54;;;;;;;;;;;29.80;36.90;;;;;;8395974;28;19916;-45
2022/07/21 17:25:54;;;;;;;;;;;29.80;36.90;;;;;;8395527;28;19924;-46
2022/07/21 17:29:55;;;;;;;;;;;29.80;36.90;;;;;;8396329;28;19939;-45
2022/07/21 17:33:55;;;;;;;;;;;29.70;36.80;;;;;;8396013;28;19967;-44
2022/07/21 17:37:56;;;;;;;;;;;29.70;36.80;;;;;;8395294;28;20015;-46
2022/07/21 17:41:56;;;;;;;;;;;29.70;36.80;;;;;;8346188;28;20381;-44
2022/07/21 17:45:57;;;;;;;;;;;29.70;36.90;;;;;;8336571;28;19939;-45
2022/07/21 17:49:57;;;;;;;;;;;29.70;36.90;;;;;;8351856;28;20285;-47
2022/07/21 17:53:58;;;;;;;;;;;29.70;36.90;;;;;;8348070;28;20006;-45
2022/07/21 18:02:17;;;;;;;;;;;29.70;36.90;;;;;;8354164;28;19955;-44
2022/07/21 18:06:18;;;;;;;;;;;29.70;36.90;;;;;;8327708;28;20370;-45
2022/07/21 18:10:19;;;;;;;;;;;29.70;37.00;;;;;;8349873;28;20282;-45
2022/07/21 18:14:19;;;;;;;;;;;29.70;37.00;;;;;;8349079;28;20070;-44
2022/07/21 18:18:20;;;;;;;;;;;29.60;36.90;;;;;;8354127;28;19921;-43
2022/07/21 18:22:20;;;;;;;;;;;29.70;37.00;;;;;;8367879;28;19913;-44
2022/07/21 18:26:21;;;;;;;;;;;29.70;37.00;;;;;;8363809;28;20284;-44
2022/07/21 18:30:21;;;;;;;;;;;29.60;37.40;;;;;;8354726;28;20004;-44
2022/07/21 18:34:22;;;;;;;;;;;29.60;36.90;;;;;;8347328;28;19917;-44
2022/07/21 18:38:22;;;;;;;;;;;29.70;37.00;;;;;;8338413;28;20286;-44
2022/07/21 18:42:23;;;;;;;;;;;29.60;37.10;;;;;;8348272;28;19924;-44
2022/07/21 18:46:23;;;;;;;;;;;29.60;37.00;;;;;;8348902;28;19936;-44
2022/07/21 18:50:24;;;;;;;;;;;29.60;37.10;;;;;;8358546;28;19927;-44
2022/07/21 18:54:24;;;;;;;;;;;29.60;37.10;;;;;;8362650;28;20262;-45
2022/07/21 18:58:25;;;;;;;;;;;29.60;37.20;;;;;;8347881;28;21092;-44
2022/07/21 19:02:25;;;;;;;;;;;29.50;37.10;;;;;;8344487;28;19970;-45
2022/07/21 19:06:26;;;;;;;;;;;29.60;37.20;;;;;;8362066;28;20328;-45
2022/07/21 19:10:27;;;;;;;;;;;29.60;37.20;;;;;;8338989;28;19964;-44
2022/07/21 19:14:27;;;;;;;;;;;29.50;37.10;;;;;;8365717;28;20398;-44
2022/07/21 19:18:27;;;;;;;;;;;29.50;37.10;;;;;;8366102;28;20436;-44
2022/07/21 19:22:28;;;;;;;;;;;29.50;37.10;;;;;;8365612;28;19969;-44
2022/07/21 19:26:28;;;;;;;;;;;29.50;37.10;;;;;;8365225;28;20010;-44
2022/07/21 19:30:29;;;;;;;;;;;29.50;37.10;;;;;;8366287;28;19923;-45
2022/07/21 19:34:30;;;;;;;;;;;29.50;37.20;;;;;;8365706;28;19925;-44
2022/07/21 19:38:30;;;;;;;;;;;29.50;37.20;;;;;;8365186;28;20270;-44
2022/07/21 19:42:31;;;;;;;;;;;29.50;37.20;;;;;;8365674;28;20012;-44
2022/07/21 19:46:33;;;;;;;;;;;29.50;37.20;;;;;;8364601;28;21286;-44
2022/07/21 19:50:33;;;;;;;;;;;29.50;37.20;;;;;;8364898;28;20287;-44
2022/07/21 19:54:34;;;;;;;;;;;29.50;37.30;;;;;;8365012;28;19928;-44
2022/07/21 19:58:34;;;;;;;;;;;29.40;37.20;;;;;;8364762;28;20373;-45
2022/07/21 20:02:35;;;;;;;;;;;29.40;37.30;;;;;;8364422;28;19924;-44
2022/07/21 20:06:35;;;;;;;;;;;29.40;37.30;;;;;;8364897;28;20384;-44
2022/07/21 20:10:36;;;;;;;;;;;29.40;37.80;;;;;;8364322;28;20001;-42
2022/07/21 20:14:36;;;;;;;;;;;29.40;37.30;;;;;;8364117;28;19927;-46
2022/07/21 20:18:37;;;;;;;;;;;29.40;37.30;;;;;;8364234;28;19920;-46
2022/07/21 20:22:37;;;;;;;;;;;29.40;37.30;;;;;;8363782;28;19921;-44
2022/07/21 20:26:38;;;;;;;;;;;29.40;37.30;;;;;;8364044;28;20369;-44
2022/07/21 20:30:38;;;;;;;;;;;29.30;37.30;;;;;;8364394;28;19967;-44
2022/07/21 20:34:39;;;;;;;;;;;29.30;37.30;;;;;;8362878;28;20369;-44
2022/07/21 20:38:39;;;;;;;;;;;29.30;37.30;;;;;;8363962;28;19921;-44
2022/07/21 20:42:40;;;;;;;;;;;29.30;37.30;;;;;;8363703;28;19921;-44
2022/07/21 20:46:40;;;;;;;;;;;29.30;37.30;;;;;;8363089;28;19936;-43
2022/07/21 20:50:41;;;;;;;;;;;29.30;37.30;;;;;;8363737;28;20340;-44
2022/07/21 20:54:41;;;;;;;;;;;29.30;37.40;;;;;;8363352;28;19924;-43
2022/07/21 20:58:42;;;;;;;;;;;29.30;37.40;;;;;;8362944;28;19963;-44
2022/07/21 21:02:42;;;;;;;;;;;29.30;37.40;;;;;;8363277;28;19959;-44
2022/07/21 21:06:43;;;;;;;;;;;29.30;37.40;;;;;;8363185;28;19920;-45
2022/07/21 21:10:44;;;;;;;;;;;29.30;37.40;;;;;;8362960;28;20274;-43
2022/07/21 21:14:44;;;;;;;;;;;29.20;37.30;;;;;;8363174;28;20386;-45
2022/07/21 21:18:45;;;;;;;;;;;29.30;37.40;;;;;;8363474;28;20008;-44
2022/07/21 21:22:45;;;;;;;;;;;29.20;37.30;;;;;;8362663;28;20000;-45
2022/07/21 21:26:46;;;;;;;;;;;29.20;37.30;;;;;;8363115;28;19920;-43
2022/07/21 21:30:47;;;;;;;;;;;29.20;37.30;;;;;;8363296;28;19917;-44
2022/07/21 21:34:47;;;;;;;;;;;29.20;37.40;;;;;;8362311;28;19921;-44
2022/07/21 21:38:47;;;;;;;;;;;29.20;37.40;;;;;;8362392;28;20348;-44
2022/07/21 21:42:48;;;;;;;;;;;29.20;37.40;;;;;;8362591;28;19924;-45
2022/07/21 21:46:48;;;;;;;;;;;29.20;37.40;;;;;;8363952;28;19921;-46
2022/07/21 21:50:49;;;;;;;;;;;29.20;37.40;;;;;;8368755;28;20444;-43
2022/07/21 21:54:49;;;;;;;;;;;29.10;37.40;;;;;;8368853;28;19924;-45
2022/07/21 21:58:50;;;;;;;;;;;29.10;37.40;;;;;;8368118;28;19917;-45
2022/07/21 22:02:50;;;;;;;;;;;29.10;37.40;;;;;;8367851;28;19924;-45
2022/07/21 22:06:50;;;;;;;;;;;29.10;37.40;;;;;;8368370;28;19972;-46
2022/07/21 22:10:51;;;;;;;;;;;29.10;37.50;;;;;;8368172;28;19924;-46
2022/07/21 22:14:51;;;;;;;;;;;29.10;37.50;;;;;;8368206;28;19925;-44
2022/07/21 22:18:52;;;;;;;;;;;29.10;37.50;;;;;;8368055;28;19916;-45
2022/07/21 22:22:53;;;;;;;;;;;29.10;37.50;;;;;;8367464;28;19917;-45
2022/07/21 22:26:53;;;;;;;;;;;29.10;37.50;;;;;;8368090;28;19964;-44
2022/07/21 22:30:54;;;;;;;;;;;29.00;37.40;;;;;;8367600;28;19940;-44
2022/07/21 22:34:54;;;;;;;;;;;29.00;37.50;;;;;;8367183;28;20390;-45
2022/07/21 22:38:55;;;;;;;;;;;29.00;37.50;;;;;;8367456;28;19951;-44
2022/07/21 22:42:55;;;;;;;;;;;29.00;37.50;;;;;;8367366;28;19913;-44
2022/07/21 22:46:56;;;;;;;;;;;29.00;37.50;;;;;;8367095;28;19924;-44
2022/07/21 22:50:56;;;;;;;;;;;29.00;37.50;;;;;;8366941;28;19923;-45
2022/07/21 22:54:57;;;;;;;;;;;29.00;37.50;;;;;;8366997;28;19920;-44
2022/07/21 22:58:57;;;;;;;;;;;29.00;37.50;;;;;;8365351;28;19917;-44
2022/07/21 23:02:57;;;;;;;;;;;28.90;37.50;;;;;;8366623;28;19913;-44
2022/07/21 23:06:58;;;;;;;;;;;28.90;37.50;;;;;;8367052;28;20074;-44
2022/07/21 23:10:58;;;;;;;;;;;28.90;37.50;;;;;;8366132;28;19952;-44
2022/07/21 23:14:59;;;;;;;;;;;28.90;37.50;;;;;;8366315;28;19921;-44
2022/07/21 23:18:59;;;;;;;;;;;28.90;37.60;;;;;;8366438;28;19913;-44
2022/07/21 23:23:00;;;;;;;;;;;28.90;37.60;;;;;;8365646;28;19917;-43
2022/07/21 23:27:00;;;;;;;;;;;28.90;37.60;;;;;;8366390;28;19917;-43
2022/07/21 23:31:01;;;;;;;;;;;28.90;37.60;;;;;;8365789;28;20293;-44
2022/07/21 23:35:02;;;;;;;;;;;28.90;37.70;;;;;;8365152;28;19924;-44
2022/07/21 23:39:02;;;;;;;;;;;28.90;37.70;;;;;;8365438;28;20267;-44